createdAt,value
2019-03-17T00:00:58.330Z,51.01
2019-03-17T00:02:00.664Z,51.00
2019-03-17T00:03:02.899Z,51.01
2019-03-17T00:04:05.119Z,51.00
2019-03-17T00:05:07.335Z,51.01
2019-03-17T00:06:09.525Z,51.00
2019-03-17T00:07:11.736Z,50.97
2019-03-17T00:08:13.963Z,50.94
2019-03-17T00:09:16.192Z,50.94
2019-03-17T00:10:18.394Z,50.94
2019-03-17T00:11:20.612Z,50.90
2019-03-17T00:12:22.828Z,50.93
2019-03-17T00:13:25.319Z,50.96
2019-03-17T00:14:27.604Z,50.95
2019-03-17T00:15:29.822Z,50.95
2019-03-17T00:16:32.081Z,50.93
2019-03-17T00:17:35.511Z,50.95
2019-03-17T00:18:37.807Z,50.94
2019-03-17T00:19:40.058Z,50.97
2019-03-17T00:20:42.286Z,50.98
2019-03-17T00:21:44.497Z,50.98
2019-03-17T00:22:46.818Z,50.96
2019-03-17T00:23:49.051Z,50.94
2019-03-17T00:24:51.267Z,50.93
2019-03-17T00:25:53.584Z,50.94
2019-03-17T00:26:55.799Z,50.94
2019-03-17T00:27:58.017Z,50.96
2019-03-17T00:29:00.464Z,50.94
2019-03-17T00:30:02.788Z,50.96
2019-03-17T00:31:05.188Z,50.98
2019-03-17T00:32:07.545Z,51.02
2019-03-17T00:33:09.743Z,51.01
2019-03-17T00:34:12.103Z,50.94
2019-03-17T00:35:14.326Z,50.98
2019-03-17T00:36:16.650Z,50.96
2019-03-17T00:37:18.896Z,50.96
2019-03-17T00:38:21.119Z,51.01
2019-03-17T00:39:23.341Z,50.96
2019-03-17T00:40:25.571Z,50.97
2019-03-17T00:41:27.811Z,50.97
2019-03-17T00:42:30.019Z,50.94
2019-03-17T00:43:32.294Z,50.94
2019-03-17T00:44:34.727Z,50.94
2019-03-17T00:45:36.935Z,50.95
2019-03-17T00:46:39.195Z,50.98
2019-03-17T00:47:41.425Z,50.98
2019-03-17T00:48:43.631Z,50.94
2019-03-17T00:49:45.877Z,50.97
2019-03-17T00:50:49.070Z,50.95
2019-03-17T00:51:51.450Z,50.96
2019-03-17T00:52:53.603Z,50.96
2019-03-17T00:53:55.823Z,50.95
2019-03-17T00:54:58.023Z,50.97
2019-03-17T00:56:00.239Z,50.98
2019-03-17T00:57:02.438Z,50.94
2019-03-17T00:58:04.583Z,50.92
2019-03-17T00:59:06.800Z,50.96
2019-03-17T01:00:09.206Z,50.93
2019-03-17T01:01:11.603Z,50.93
2019-03-17T01:02:13.909Z,50.90
2019-03-17T01:03:16.112Z,50.90
2019-03-17T01:04:18.376Z,50.90
2019-03-17T01:05:20.613Z,50.89
2019-03-17T01:06:22.850Z,50.90
2019-03-17T01:07:25.077Z,50.91
2019-03-17T01:08:27.287Z,50.89
2019-03-17T01:09:29.580Z,50.87
2019-03-17T01:10:31.795Z,50.88
2019-03-17T01:11:34.008Z,50.90
2019-03-17T01:12:36.221Z,50.91
2019-03-17T01:13:38.430Z,50.93
2019-03-17T01:14:40.640Z,50.91
2019-03-17T01:15:42.840Z,50.89
2019-03-17T01:16:45.189Z,50.91
2019-03-17T01:17:47.399Z,50.99
2019-03-17T01:18:49.714Z,50.98
2019-03-17T01:19:51.944Z,50.94
2019-03-17T01:20:54.161Z,50.95
2019-03-17T01:21:56.445Z,50.96
2019-03-17T01:22:58.628Z,50.92
2019-03-17T01:24:00.995Z,50.96
2019-03-17T01:25:03.221Z,50.90
2019-03-17T01:26:05.520Z,50.90
2019-03-17T01:27:07.742Z,50.90
2019-03-17T01:28:09.980Z,50.88
2019-03-17T01:29:12.211Z,50.89
2019-03-17T01:30:14.411Z,50.91
2019-03-17T01:31:16.879Z,50.92
2019-03-17T01:32:19.076Z,50.93
2019-03-17T01:33:21.276Z,50.92
2019-03-17T01:34:23.493Z,50.93
2019-03-17T01:35:25.779Z,50.93
2019-03-17T01:36:28.008Z,50.92
2019-03-17T01:37:30.203Z,50.94
2019-03-17T01:38:32.403Z,50.96
2019-03-17T01:39:34.647Z,50.93
2019-03-17T01:40:36.887Z,50.92
2019-03-17T01:41:39.136Z,50.96
2019-03-17T01:42:41.343Z,50.93
2019-03-17T01:43:43.567Z,50.92
2019-03-17T01:44:45.812Z,50.92
2019-03-17T01:45:48.139Z,50.91
2019-03-17T01:46:50.413Z,50.88
2019-03-17T01:47:52.633Z,50.89
2019-03-17T01:48:54.836Z,50.88
2019-03-17T01:49:57.037Z,50.86
2019-03-17T01:50:59.243Z,50.87
2019-03-17T01:52:01.478Z,50.88
2019-03-17T01:53:03.820Z,50.86
2019-03-17T01:54:06.007Z,50.88
2019-03-17T01:55:08.254Z,50.87
2019-03-17T01:56:10.467Z,50.91
2019-03-17T01:57:12.674Z,50.86
2019-03-17T01:58:16.247Z,50.86
2019-03-17T01:59:18.501Z,50.86
2019-03-17T02:00:20.646Z,50.87
2019-03-17T02:01:22.935Z,50.87
2019-03-17T02:02:25.142Z,50.86
2019-03-17T02:03:27.454Z,50.86
2019-03-17T02:04:29.684Z,50.84
2019-03-17T02:05:33.339Z,50.85
2019-03-17T02:06:35.653Z,50.85
2019-03-17T02:07:37.816Z,50.89
2019-03-17T02:08:40.022Z,50.87
2019-03-17T02:09:42.237Z,50.87
2019-03-17T02:10:44.444Z,50.86
2019-03-17T02:11:46.678Z,50.87
2019-03-17T02:12:48.865Z,50.87
2019-03-17T02:13:51.211Z,50.86
2019-03-17T02:14:53.534Z,50.85
2019-03-17T02:15:55.775Z,50.88
2019-03-17T02:16:58.030Z,50.80
2019-03-17T02:18:00.241Z,50.85
2019-03-17T02:19:02.439Z,50.85
2019-03-17T02:20:04.663Z,50.86
2019-03-17T02:21:06.863Z,50.89
2019-03-17T02:22:09.078Z,50.87
2019-03-17T02:23:11.280Z,50.86
2019-03-17T02:24:13.506Z,50.86
2019-03-17T02:25:15.714Z,50.89
2019-03-17T02:26:17.936Z,50.89
2019-03-17T02:27:20.146Z,50.89
2019-03-17T02:28:22.361Z,50.85
2019-03-17T02:29:24.601Z,50.86
2019-03-17T02:30:26.809Z,50.86
2019-03-17T02:31:29.017Z,50.88
2019-03-17T02:32:31.247Z,50.86
2019-03-17T02:33:33.472Z,50.90
2019-03-17T02:34:35.740Z,50.88
2019-03-17T02:35:39.993Z,50.88
2019-03-17T02:36:44.839Z,50.90
2019-03-17T02:37:47.046Z,50.86
2019-03-17T02:38:49.263Z,50.87
2019-03-17T02:39:51.467Z,50.86
2019-03-17T02:40:53.668Z,50.86
2019-03-17T02:41:55.869Z,50.85
2019-03-17T02:42:58.071Z,50.87
2019-03-17T02:44:00.289Z,50.88
2019-03-17T02:45:02.502Z,50.88
2019-03-17T02:46:04.715Z,50.87
2019-03-17T02:47:06.936Z,50.89
2019-03-17T02:48:09.161Z,50.88
2019-03-17T02:49:11.378Z,50.86
2019-03-17T02:50:13.643Z,50.85
2019-03-17T02:51:15.852Z,50.86
2019-03-17T02:52:18.062Z,50.86
2019-03-17T02:53:20.383Z,50.85
2019-03-17T02:54:22.576Z,50.86
2019-03-17T02:55:25.168Z,50.83
2019-03-17T02:56:27.374Z,50.81
2019-03-17T02:57:29.839Z,50.80
2019-03-17T02:58:32.099Z,50.81
2019-03-17T02:59:34.332Z,50.80
2019-03-17T03:00:36.551Z,50.85
2019-03-17T03:01:38.746Z,50.83
2019-03-17T03:02:40.971Z,50.83
2019-03-17T03:03:43.170Z,50.88
2019-03-17T03:04:46.612Z,50.88
2019-03-17T03:05:55.228Z,50.88
2019-03-17T03:06:52.668Z,50.88
2019-03-17T03:07:54.877Z,50.88
2019-03-17T03:08:57.077Z,50.85
2019-03-17T03:09:59.335Z,50.83
2019-03-17T03:11:04.320Z,50.85
2019-03-17T03:12:06.543Z,50.80
2019-03-17T03:13:08.736Z,50.82
2019-03-17T03:14:10.934Z,50.80
2019-03-17T03:15:13.163Z,50.80
2019-03-17T03:16:15.366Z,50.79
2019-03-17T03:17:17.597Z,50.79
2019-03-17T03:18:19.773Z,50.80
2019-03-17T03:19:22.075Z,50.79
2019-03-17T03:20:24.289Z,50.82
2019-03-17T03:21:26.495Z,50.78
2019-03-17T03:22:28.735Z,50.79
2019-03-17T03:23:30.911Z,50.78
2019-03-17T03:24:33.100Z,50.79
2019-03-17T03:25:35.334Z,50.77
2019-03-17T03:26:37.535Z,50.77
2019-03-17T03:27:39.736Z,50.79
2019-03-17T03:28:41.953Z,50.78
2019-03-17T03:29:44.139Z,50.78
2019-03-17T03:30:46.374Z,50.79
2019-03-17T03:31:48.577Z,50.79
2019-03-17T03:32:50.776Z,50.81
2019-03-17T03:33:53.006Z,50.82
2019-03-17T03:34:55.172Z,50.88
2019-03-17T03:36:09.887Z,50.86
2019-03-17T03:37:01.264Z,50.83
2019-03-17T03:38:03.459Z,50.82
2019-03-17T03:39:05.665Z,50.81
2019-03-17T03:40:07.869Z,50.84
2019-03-17T03:41:10.161Z,50.80
2019-03-17T03:42:12.307Z,50.86
2019-03-17T03:43:14.525Z,50.81
2019-03-17T03:44:16.727Z,50.80
2019-03-17T03:45:18.928Z,50.79
2019-03-17T03:46:21.160Z,50.82
2019-03-17T03:47:23.375Z,50.84
2019-03-17T03:48:25.579Z,50.87
2019-03-17T03:49:27.884Z,50.85
2019-03-17T03:50:30.091Z,50.83
2019-03-17T03:51:32.323Z,50.82
2019-03-17T03:52:34.539Z,50.79
2019-03-17T03:53:36.837Z,50.79
2019-03-17T03:54:39.149Z,50.79
2019-03-17T03:55:42.416Z,50.77
2019-03-17T03:56:44.772Z,50.80
2019-03-17T03:57:46.991Z,50.78
2019-03-17T03:58:49.187Z,50.80
2019-03-17T03:59:51.385Z,50.79
2019-03-17T04:00:53.605Z,50.80
2019-03-17T04:01:55.818Z,50.80
2019-03-17T04:02:58.018Z,50.78
2019-03-17T04:04:01.345Z,50.81
2019-03-17T04:05:03.545Z,50.81
2019-03-17T04:06:05.778Z,50.81
2019-03-17T04:07:07.977Z,50.80
2019-03-17T04:08:10.187Z,50.80
2019-03-17T04:09:12.395Z,50.78
2019-03-17T04:10:14.598Z,50.80
2019-03-17T04:11:16.810Z,50.76
2019-03-17T04:12:19.018Z,50.76
2019-03-17T04:13:21.207Z,50.77
2019-03-17T04:14:23.392Z,50.77
2019-03-17T04:15:25.790Z,50.76
2019-03-17T04:16:30.650Z,50.76
2019-03-17T04:17:32.857Z,50.77
2019-03-17T04:18:35.080Z,50.81
2019-03-17T04:19:37.364Z,50.77
2019-03-17T04:20:39.581Z,50.79
2019-03-17T04:21:41.993Z,50.78
2019-03-17T04:22:44.199Z,50.77
2019-03-17T04:23:46.383Z,50.78
2019-03-17T04:24:48.606Z,50.79
2019-03-17T04:25:50.815Z,50.83
2019-03-17T04:26:53.026Z,50.81
2019-03-17T04:27:55.232Z,50.86
2019-03-17T04:28:57.438Z,50.85
2019-03-17T04:29:59.635Z,50.86
2019-03-17T04:31:01.886Z,50.86
2019-03-17T04:32:04.104Z,50.83
2019-03-17T04:33:06.320Z,50.80
2019-03-17T04:34:08.775Z,50.84
2019-03-17T04:35:10.968Z,50.82
2019-03-17T04:36:16.210Z,50.82
2019-03-17T04:37:18.411Z,50.80
2019-03-17T04:38:20.623Z,50.84
2019-03-17T04:39:22.849Z,50.84
2019-03-17T04:40:25.052Z,50.80
2019-03-17T04:41:27.276Z,50.81
2019-03-17T04:42:29.478Z,50.81
2019-03-17T04:43:31.674Z,50.78
2019-03-17T04:44:33.876Z,50.80
2019-03-17T04:45:36.072Z,50.79
2019-03-17T04:46:38.298Z,50.80
2019-03-17T04:47:40.500Z,50.81
2019-03-17T04:48:42.766Z,50.81
2019-03-17T04:49:45.019Z,50.81
2019-03-17T04:50:47.222Z,50.81
2019-03-17T04:51:49.439Z,50.79
2019-03-17T04:52:51.662Z,50.75
2019-03-17T04:53:53.891Z,50.76
2019-03-17T04:54:56.091Z,50.76
2019-03-17T04:55:58.301Z,50.76
2019-03-17T04:57:00.542Z,50.75
2019-03-17T04:58:02.752Z,50.74
2019-03-17T04:59:04.954Z,50.74
2019-03-17T05:00:07.174Z,50.74
2019-03-17T05:01:09.594Z,50.73
2019-03-17T05:02:13.630Z,50.71
2019-03-17T05:03:15.779Z,50.73
2019-03-17T05:04:17.972Z,50.73
2019-03-17T05:05:20.177Z,50.74
2019-03-17T05:06:24.732Z,50.70
2019-03-17T05:07:26.941Z,50.71
2019-03-17T05:08:29.153Z,50.74
2019-03-17T05:09:31.375Z,50.71
2019-03-17T05:10:33.734Z,50.70
2019-03-17T05:11:38.318Z,50.73
2019-03-17T05:12:40.528Z,50.71
2019-03-17T05:13:42.730Z,50.72
2019-03-17T05:14:44.951Z,50.72
2019-03-17T05:15:47.155Z,50.70
2019-03-17T05:16:49.368Z,50.73
2019-03-17T05:17:54.357Z,50.72
2019-03-17T05:18:56.568Z,50.69
2019-03-17T05:19:58.776Z,50.71
2019-03-17T05:21:00.971Z,50.70
2019-03-17T05:22:03.184Z,50.71
2019-03-17T05:23:06.109Z,50.68
2019-03-17T05:24:08.391Z,50.70
2019-03-17T05:25:10.750Z,50.73
2019-03-17T05:26:12.970Z,50.73
2019-03-17T05:27:15.179Z,50.70
2019-03-17T05:28:17.404Z,50.69
2019-03-17T05:29:19.614Z,50.70
2019-03-17T05:30:21.810Z,50.68
2019-03-17T05:31:25.442Z,50.70
2019-03-17T05:32:27.644Z,50.70
2019-03-17T05:33:29.867Z,50.67
2019-03-17T05:34:32.084Z,50.68
2019-03-17T05:35:34.298Z,50.68
2019-03-17T05:36:36.642Z,50.68
2019-03-17T05:37:38.875Z,50.68
2019-03-17T05:38:41.079Z,50.64
2019-03-17T05:39:44.394Z,50.65
2019-03-17T05:40:46.578Z,50.66
2019-03-17T05:41:48.808Z,50.67
2019-03-17T05:42:51.127Z,50.65
2019-03-17T05:43:53.338Z,50.64
2019-03-17T05:44:55.551Z,50.64
2019-03-17T05:45:57.761Z,50.63
2019-03-17T05:46:59.986Z,50.64
2019-03-17T05:48:02.183Z,50.63
2019-03-17T05:49:04.386Z,50.62
2019-03-17T05:50:06.599Z,50.62
2019-03-17T05:51:08.800Z,50.62
2019-03-17T05:52:11.042Z,50.62
2019-03-17T05:53:13.248Z,50.61
2019-03-17T05:54:15.452Z,50.59
2019-03-17T05:55:17.677Z,50.61
2019-03-17T05:56:19.868Z,50.58
2019-03-17T05:57:22.195Z,50.58
2019-03-17T05:58:24.406Z,50.56
2019-03-17T05:59:26.616Z,50.58
2019-03-17T06:00:28.848Z,50.56
2019-03-17T06:01:31.048Z,50.56
2019-03-17T06:02:33.263Z,50.56
2019-03-17T06:03:35.473Z,50.54
2019-03-17T06:04:37.694Z,50.55
2019-03-17T06:05:39.986Z,50.52
2019-03-17T06:06:42.194Z,50.49
2019-03-17T06:07:44.443Z,50.50
2019-03-17T06:08:46.654Z,50.51
2019-03-17T06:09:48.847Z,50.50
2019-03-17T06:10:51.040Z,50.50
2019-03-17T06:11:53.244Z,50.50
2019-03-17T06:12:55.480Z,50.50
2019-03-17T06:13:57.687Z,50.47
2019-03-17T06:14:59.923Z,50.49
2019-03-17T06:16:02.111Z,50.46
2019-03-17T06:17:04.324Z,50.49
2019-03-17T06:18:06.568Z,50.49
2019-03-17T06:19:08.769Z,50.50
2019-03-17T06:20:10.981Z,50.48
2019-03-17T06:21:13.192Z,50.46
2019-03-17T06:22:15.413Z,50.47
2019-03-17T06:23:17.606Z,50.47
2019-03-17T06:24:19.837Z,50.47
2019-03-17T06:25:22.046Z,50.44
2019-03-17T06:26:24.245Z,50.42
2019-03-17T06:27:26.446Z,50.43
2019-03-17T06:28:28.684Z,50.42
2019-03-17T06:29:30.898Z,50.40
2019-03-17T06:30:33.104Z,50.43
2019-03-17T06:31:35.303Z,50.41
2019-03-17T06:32:37.512Z,50.42
2019-03-17T06:33:39.765Z,50.39
2019-03-17T06:34:41.949Z,50.39
2019-03-17T06:35:44.158Z,50.38
2019-03-17T06:36:46.374Z,50.39
2019-03-17T06:37:48.582Z,50.41
2019-03-17T06:38:50.821Z,50.38
2019-03-17T06:39:53.044Z,50.37
2019-03-17T06:40:55.244Z,50.38
2019-03-17T06:41:57.447Z,50.40
2019-03-17T06:42:59.683Z,50.37
2019-03-17T06:44:02.035Z,50.38
2019-03-17T06:45:04.249Z,50.38
2019-03-17T06:46:06.443Z,50.37
2019-03-17T06:47:08.649Z,50.35
2019-03-17T06:48:10.858Z,50.36
2019-03-17T06:49:13.108Z,50.35
2019-03-17T06:50:15.335Z,50.34
2019-03-17T06:51:17.501Z,50.35
2019-03-17T06:52:21.842Z,50.35
2019-03-17T06:53:24.051Z,50.38
2019-03-17T06:54:26.289Z,50.32
2019-03-17T06:55:28.500Z,50.36
2019-03-17T06:56:30.697Z,50.32
2019-03-17T06:57:32.987Z,50.29
2019-03-17T06:58:35.307Z,50.30
2019-03-17T06:59:37.552Z,50.28
2019-03-17T07:00:39.739Z,50.30
2019-03-17T07:01:41.981Z,50.30
2019-03-17T07:02:44.190Z,50.30
2019-03-17T07:03:46.407Z,50.29
2019-03-17T07:04:48.629Z,50.32
2019-03-17T07:05:50.841Z,50.27
2019-03-17T07:06:53.055Z,50.31
2019-03-17T07:07:55.263Z,50.30
2019-03-17T07:08:57.477Z,50.31
2019-03-17T07:09:59.725Z,50.32
2019-03-17T07:11:01.937Z,50.28
2019-03-17T07:12:04.144Z,50.28
2019-03-17T07:13:06.351Z,50.33
2019-03-17T07:14:11.673Z,50.28
2019-03-17T07:15:13.920Z,50.27
2019-03-17T07:16:16.119Z,50.24
2019-03-17T07:17:19.436Z,50.26
2019-03-17T07:18:21.734Z,50.27
2019-03-17T07:19:23.865Z,50.26
2019-03-17T07:20:26.096Z,50.28
2019-03-17T07:21:28.312Z,50.28
2019-03-17T07:22:30.506Z,50.26
2019-03-17T07:23:34.318Z,50.24
2019-03-17T07:24:36.731Z,50.19
2019-03-17T07:25:38.968Z,50.19
2019-03-17T07:26:41.173Z,50.16
2019-03-17T07:27:43.384Z,50.12
2019-03-17T07:28:45.600Z,50.13
2019-03-17T07:29:49.528Z,50.12
2019-03-17T07:30:51.867Z,50.10
2019-03-17T07:31:54.083Z,50.12
2019-03-17T07:32:57.352Z,50.11
2019-03-17T07:33:59.504Z,50.12
2019-03-17T07:35:03.374Z,50.14
2019-03-17T07:36:05.618Z,50.11
2019-03-17T07:37:07.826Z,50.10
2019-03-17T07:38:10.038Z,50.14
2019-03-17T07:39:12.590Z,50.11
2019-03-17T07:40:14.842Z,50.11
2019-03-17T07:41:17.086Z,50.12
2019-03-17T07:42:19.300Z,50.14
2019-03-17T07:43:21.502Z,50.15
2019-03-17T07:44:23.702Z,50.14
2019-03-17T07:45:25.915Z,50.17
2019-03-17T07:46:28.120Z,50.12
2019-03-17T07:47:30.355Z,50.14
2019-03-17T07:48:32.624Z,50.13
2019-03-17T07:49:34.852Z,50.11
2019-03-17T07:50:37.216Z,50.12
2019-03-17T07:51:39.430Z,50.20
2019-03-17T07:52:41.667Z,50.10
2019-03-17T07:53:43.886Z,50.11
2019-03-17T07:54:46.092Z,50.13
2019-03-17T07:55:48.308Z,50.09
2019-03-17T07:56:50.518Z,50.11
2019-03-17T07:57:52.722Z,50.08
2019-03-17T07:58:54.940Z,50.24
2019-03-17T07:59:57.291Z,50.18
2019-03-17T08:01:01.199Z,50.06
2019-03-17T08:02:03.681Z,50.11
2019-03-17T08:03:05.906Z,50.07
2019-03-17T08:04:08.107Z,50.15
2019-03-17T08:05:10.491Z,50.12
2019-03-17T08:06:14.468Z,50.36
2019-03-17T08:07:19.324Z,50.27
2019-03-17T08:08:20.578Z,50.25
2019-03-17T08:09:22.809Z,50.30
2019-03-17T08:10:25.025Z,50.30
2019-03-17T08:11:27.232Z,50.27
2019-03-17T08:12:29.466Z,50.37
2019-03-17T08:13:31.671Z,50.25
2019-03-17T08:14:33.896Z,50.29
2019-03-17T08:15:36.311Z,50.37
2019-03-17T08:16:38.529Z,50.30
2019-03-17T08:17:40.744Z,50.46
2019-03-17T08:18:42.956Z,50.34
2019-03-17T08:19:45.155Z,50.37
2019-03-17T08:20:47.396Z,50.29
2019-03-17T08:21:49.613Z,50.32
2019-03-17T08:22:53.835Z,50.44
2019-03-17T08:23:56.035Z,50.43
2019-03-17T08:24:58.249Z,50.37
2019-03-17T08:26:00.472Z,50.31
2019-03-17T08:27:02.713Z,50.31
2019-03-17T08:28:04.913Z,50.33
2019-03-17T08:29:07.132Z,50.28
2019-03-17T08:30:09.348Z,50.32
2019-03-17T08:31:11.552Z,50.41
2019-03-17T08:32:13.795Z,50.33
2019-03-17T08:33:16.015Z,50.33
2019-03-17T08:34:18.212Z,50.35
2019-03-17T08:35:21.785Z,50.37
2019-03-17T08:36:23.952Z,50.36
2019-03-17T08:37:26.185Z,50.38
2019-03-17T08:38:28.413Z,50.44
2019-03-17T08:39:30.901Z,50.42
2019-03-17T08:40:33.104Z,50.40
2019-03-17T08:41:37.550Z,50.42
2019-03-17T08:42:39.186Z,50.47
2019-03-17T08:43:53.428Z,50.48
2019-03-17T08:44:45.249Z,50.50
2019-03-17T08:45:47.463Z,50.40
2019-03-17T08:46:49.691Z,50.36
2019-03-17T08:47:57.953Z,50.50
2019-03-17T08:48:55.757Z,50.40
2019-03-17T08:49:57.990Z,50.48
2019-03-17T08:51:00.213Z,50.55
2019-03-17T08:52:02.437Z,50.40
2019-03-17T08:53:04.649Z,50.47
2019-03-17T08:54:06.874Z,50.46
2019-03-17T08:55:09.091Z,50.56
2019-03-17T08:56:11.299Z,50.59
2019-03-17T08:57:13.619Z,50.54
2019-03-17T08:58:15.897Z,50.64
2019-03-17T08:59:18.096Z,50.50
2019-03-17T09:00:20.321Z,50.66
2019-03-17T09:01:22.537Z,50.55
2019-03-17T09:02:24.768Z,50.66
2019-03-17T09:03:27.192Z,50.59
2019-03-17T09:04:29.403Z,50.95
2019-03-17T09:05:31.595Z,51.33
2019-03-17T09:06:33.802Z,51.42
2019-03-17T09:07:36.020Z,51.44
2019-03-17T09:08:38.225Z,51.40
2019-03-17T09:09:40.435Z,51.81
2019-03-17T09:10:42.694Z,51.85
2019-03-17T09:11:44.897Z,51.81
2019-03-17T09:12:47.103Z,52.28
2019-03-17T09:13:49.397Z,52.08
2019-03-17T09:14:51.623Z,52.38
2019-03-17T09:15:53.827Z,52.52
2019-03-17T09:16:56.061Z,52.73
2019-03-17T09:17:58.274Z,52.98
2019-03-17T09:19:00.600Z,52.81
2019-03-17T09:20:02.836Z,53.33
2019-03-17T09:21:05.027Z,52.99
2019-03-17T09:22:07.266Z,52.86
2019-03-17T09:23:09.478Z,53.13
2019-03-17T09:24:17.160Z,53.00
2019-03-17T09:25:15.900Z,52.46
2019-03-17T09:26:18.305Z,52.33
2019-03-17T09:27:20.524Z,52.14
2019-03-17T09:28:22.739Z,51.93
2019-03-17T09:29:24.951Z,51.93
2019-03-17T09:30:27.175Z,51.96
2019-03-17T09:31:31.703Z,51.68
2019-03-17T09:32:33.920Z,51.68
2019-03-17T09:33:36.145Z,51.67
2019-03-17T09:34:38.360Z,51.91
2019-03-17T09:35:40.560Z,52.05
2019-03-17T09:36:42.775Z,52.12
2019-03-17T09:37:45.005Z,52.05
2019-03-17T09:38:47.819Z,52.12
2019-03-17T09:39:50.011Z,51.94
2019-03-17T09:40:52.221Z,51.78
2019-03-17T09:41:54.447Z,51.66
2019-03-17T09:42:56.697Z,51.46
2019-03-17T09:44:00.271Z,51.30
2019-03-17T09:45:02.422Z,51.15
2019-03-17T09:46:04.619Z,51.06
2019-03-17T09:47:06.861Z,51.06
2019-03-17T09:48:09.103Z,51.00
2019-03-17T09:49:12.809Z,50.98
2019-03-17T09:50:15.008Z,50.94
2019-03-17T09:51:18.432Z,50.93
2019-03-17T09:52:20.632Z,50.97
2019-03-17T09:53:24.409Z,50.95
2019-03-17T09:54:26.603Z,50.92
2019-03-17T09:55:28.865Z,50.92
2019-03-17T09:56:31.101Z,50.96
2019-03-17T09:57:33.405Z,50.94
2019-03-17T09:58:35.614Z,50.99
2019-03-17T09:59:37.837Z,51.01
2019-03-17T10:00:40.044Z,51.01
2019-03-17T10:01:42.260Z,51.01
2019-03-17T10:02:44.478Z,51.01
2019-03-17T10:03:46.778Z,50.97
2019-03-17T10:04:48.959Z,51.09
2019-03-17T10:05:51.183Z,51.07
2019-03-17T10:06:53.409Z,51.13
2019-03-17T10:07:55.638Z,51.20
2019-03-17T10:09:00.244Z,51.17
2019-03-17T10:10:01.754Z,51.29
2019-03-17T10:11:03.958Z,51.26
2019-03-17T10:12:06.179Z,51.34
2019-03-17T10:13:08.422Z,51.40
2019-03-17T10:14:10.724Z,51.30
2019-03-17T10:15:12.980Z,51.49
2019-03-17T10:16:15.196Z,51.35
2019-03-17T10:17:17.407Z,51.28
2019-03-17T10:18:19.635Z,51.34
2019-03-17T10:19:21.893Z,51.15
2019-03-17T10:20:24.185Z,51.11
2019-03-17T10:21:27.667Z,51.17
2019-03-17T10:22:29.828Z,51.19
2019-03-17T10:23:32.038Z,51.28
2019-03-17T10:24:34.258Z,51.31
2019-03-17T10:25:36.474Z,51.34
2019-03-17T10:26:38.697Z,51.45
2019-03-17T10:27:40.888Z,51.45
2019-03-17T10:28:43.091Z,51.40
2019-03-17T10:29:45.310Z,51.38
2019-03-17T10:30:47.517Z,51.31
2019-03-17T10:31:49.749Z,51.35
2019-03-17T10:32:51.968Z,51.32
2019-03-17T10:33:54.184Z,51.29
2019-03-17T10:34:56.810Z,51.20
2019-03-17T10:36:02.314Z,51.24
2019-03-17T10:37:07.598Z,51.19
2019-03-17T10:38:09.791Z,51.33
2019-03-17T10:39:12.851Z,51.39
2019-03-17T10:40:15.162Z,51.35
2019-03-17T10:41:17.390Z,51.24
2019-03-17T10:42:19.597Z,51.39
2019-03-17T10:43:21.824Z,51.27
2019-03-17T10:44:24.049Z,51.61
2019-03-17T10:45:26.190Z,51.92
2019-03-17T10:46:28.407Z,51.79
2019-03-17T10:47:30.668Z,52.07
2019-03-17T10:48:32.880Z,52.05
2019-03-17T10:49:35.236Z,51.70
2019-03-17T10:50:49.086Z,52.07
2019-03-17T10:51:44.383Z,51.99
2019-03-17T10:52:46.772Z,51.99
2019-03-17T10:53:48.928Z,52.14
2019-03-17T10:54:51.162Z,52.20
2019-03-17T10:55:55.107Z,51.96
2019-03-17T10:56:57.310Z,52.21
2019-03-17T10:57:59.557Z,52.05
2019-03-17T10:59:01.782Z,52.15
2019-03-17T11:00:04.023Z,52.20
2019-03-17T11:01:06.241Z,52.19
2019-03-17T11:02:08.457Z,52.26
2019-03-17T11:03:13.080Z,52.13
2019-03-17T11:04:15.284Z,52.21
2019-03-17T11:05:17.506Z,52.22
2019-03-17T11:06:19.746Z,52.11
2019-03-17T11:07:21.950Z,52.10
2019-03-17T11:08:24.164Z,52.10
2019-03-17T11:09:26.383Z,52.21
2019-03-17T11:10:28.610Z,52.24
2019-03-17T11:11:30.902Z,52.30
2019-03-17T11:12:33.139Z,52.44
2019-03-17T11:13:35.353Z,52.41
2019-03-17T11:14:37.581Z,52.44
2019-03-17T11:15:39.797Z,52.42
2019-03-17T11:16:42.038Z,52.62
2019-03-17T11:17:44.282Z,52.72
2019-03-17T11:18:46.512Z,52.59
2019-03-17T11:19:48.745Z,52.72
2019-03-17T11:20:50.969Z,52.73
2019-03-17T11:21:54.765Z,52.71
2019-03-17T11:22:56.990Z,52.61
2019-03-17T11:23:59.227Z,52.79
2019-03-17T11:25:01.473Z,52.71
2019-03-17T11:26:03.697Z,52.74
2019-03-17T11:27:05.906Z,52.60
2019-03-17T11:28:08.142Z,52.63
2019-03-17T11:29:10.336Z,52.58
2019-03-17T11:30:14.864Z,52.71
2019-03-17T11:31:17.077Z,52.73
2019-03-17T11:32:19.293Z,52.64
2019-03-17T11:33:21.525Z,52.65
2019-03-17T11:34:23.936Z,52.76
2019-03-17T11:35:26.506Z,52.79
2019-03-17T11:36:29.175Z,52.83
2019-03-17T11:37:35.979Z,52.76
2019-03-17T11:38:38.470Z,52.81
2019-03-17T11:39:40.691Z,52.66
2019-03-17T11:40:42.905Z,52.75
2019-03-17T11:41:45.179Z,52.59
2019-03-17T11:42:49.747Z,52.67
2019-03-17T11:43:51.304Z,52.66
2019-03-17T11:44:53.559Z,52.61
2019-03-17T11:45:55.754Z,52.56
2019-03-17T11:46:57.989Z,52.69
2019-03-17T11:48:02.681Z,52.58
2019-03-17T11:49:05.006Z,52.56
2019-03-17T11:50:07.267Z,52.53
2019-03-17T11:51:09.493Z,52.54
2019-03-17T11:52:11.697Z,52.41
2019-03-17T11:53:13.916Z,52.40
2019-03-17T11:54:16.220Z,52.30
2019-03-17T11:55:18.479Z,52.30
2019-03-17T11:56:21.857Z,52.03
2019-03-17T11:57:25.077Z,52.07
2019-03-17T11:58:27.373Z,52.27
2019-03-17T11:59:29.509Z,52.37
2019-03-17T12:00:31.755Z,52.37
2019-03-17T12:01:33.977Z,52.46
2019-03-17T12:02:39.025Z,52.44
2019-03-17T12:03:41.244Z,52.38
2019-03-17T12:04:43.453Z,52.35
2019-03-17T12:05:45.720Z,52.24
2019-03-17T12:06:47.927Z,52.18
2019-03-17T12:07:50.147Z,52.18
2019-03-17T12:08:52.349Z,52.11
2019-03-17T12:09:54.569Z,52.12
2019-03-17T12:10:56.798Z,52.13
2019-03-17T12:11:59.215Z,52.19
2019-03-17T12:13:01.401Z,52.13
2019-03-17T12:14:03.692Z,52.08
2019-03-17T12:15:08.794Z,52.06
2019-03-17T12:16:11.033Z,52.01
2019-03-17T12:17:14.092Z,51.97
2019-03-17T12:18:16.486Z,51.95
2019-03-17T12:19:18.922Z,51.86
2019-03-17T12:20:21.793Z,51.79
2019-03-17T12:21:24.308Z,51.73
2019-03-17T12:22:26.825Z,51.71
2019-03-17T12:23:29.386Z,51.71
2019-03-17T12:24:32.126Z,51.66
2019-03-17T12:25:34.835Z,51.65
2019-03-17T12:26:37.296Z,51.63
2019-03-17T12:27:39.964Z,51.63
2019-03-17T12:28:42.529Z,51.61
2019-03-17T12:29:44.707Z,51.59
2019-03-17T12:30:46.962Z,51.53
2019-03-17T12:31:49.188Z,51.43
2019-03-17T12:32:51.416Z,51.46
2019-03-17T12:33:53.646Z,51.41
2019-03-17T12:34:55.872Z,51.39
2019-03-17T12:35:58.086Z,51.42
2019-03-17T12:37:00.331Z,51.38
2019-03-17T12:38:02.559Z,51.37
2019-03-17T12:39:04.814Z,51.27
2019-03-17T12:40:10.034Z,51.29
2019-03-17T12:41:12.307Z,51.28
2019-03-17T12:42:14.557Z,51.30
2019-03-17T12:43:16.933Z,51.37
2019-03-17T12:44:19.147Z,51.35
2019-03-17T12:45:21.383Z,51.30
2019-03-17T12:46:23.600Z,51.34
2019-03-17T12:47:25.853Z,51.31
2019-03-17T12:48:28.049Z,51.28
2019-03-17T12:49:30.252Z,51.27
2019-03-17T12:50:32.562Z,51.20
2019-03-17T12:51:34.776Z,51.21
2019-03-17T12:52:37.009Z,51.16
2019-03-17T12:53:39.225Z,51.11
2019-03-17T12:54:41.446Z,51.14
2019-03-17T12:55:43.714Z,51.06
2019-03-17T12:56:46.008Z,51.03
2019-03-17T12:57:48.245Z,51.02
2019-03-17T12:58:52.980Z,51.03
2019-03-17T13:00:01.582Z,51.01
2019-03-17T13:01:04.291Z,51.03
2019-03-17T13:02:06.495Z,51.00
2019-03-17T13:03:08.733Z,50.96
2019-03-17T13:04:14.162Z,50.96
2019-03-17T13:05:16.391Z,50.93
2019-03-17T13:06:18.596Z,50.94
2019-03-17T13:07:20.858Z,50.93
2019-03-17T13:08:27.976Z,50.90
2019-03-17T13:09:30.189Z,50.87
2019-03-17T13:10:32.420Z,50.82
2019-03-17T13:11:34.623Z,50.82
2019-03-17T13:12:36.836Z,50.74
2019-03-17T13:13:39.069Z,50.75
2019-03-17T13:14:44.025Z,50.81
2019-03-17T13:15:46.231Z,50.75
2019-03-17T13:16:48.432Z,50.70
2019-03-17T13:17:50.640Z,50.75
2019-03-17T13:18:52.871Z,50.77
2019-03-17T13:19:55.136Z,50.75
2019-03-17T13:20:57.356Z,50.70
2019-03-17T13:21:59.566Z,50.62
2019-03-17T13:23:01.796Z,50.55
2019-03-17T13:24:04.045Z,50.52